createdAt,value
2023-02-23T00:01:39.877Z,14.55
2023-02-23T00:04:06.933Z,14.62
2023-02-23T00:06:35.563Z,14.76
2023-02-23T00:09:02.446Z,15.12
2023-02-23T00:11:29.242Z,14.85
2023-02-23T00:13:56.864Z,14.64
2023-02-23T00:16:25.746Z,14.43
2023-02-23T00:18:54.470Z,14.48
2023-02-23T00:21:22.670Z,14.34
2023-02-23T00:23:53.409Z,14.38
2023-02-23T00:26:40.896Z,14.69
2023-02-23T00:29:08.870Z,14.36
2023-02-23T00:31:36.195Z,14.63
2023-02-23T00:34:04.069Z,14.50
2023-02-23T00:36:32.931Z,14.50
2023-02-23T00:39:00.913Z,14.67
2023-02-23T00:41:30.170Z,14.71
2023-02-23T00:43:57.965Z,14.93
2023-02-23T00:46:27.025Z,14.82
2023-02-23T00:48:55.684Z,14.30
2023-02-23T00:51:23.011Z,14.50
2023-02-23T00:53:49.856Z,14.06
2023-02-23T00:56:16.756Z,14.41
2023-02-23T00:58:43.601Z,14.53
2023-02-23T01:01:11.442Z,14.34
2023-02-23T01:03:39.129Z,14.48
2023-02-23T01:06:06.958Z,14.27
2023-02-23T01:08:34.450Z,14.47
2023-02-23T01:11:06.559Z,14.33
2023-02-23T01:13:33.128Z,14.34
2023-02-23T01:15:59.812Z,14.43
2023-02-23T01:18:26.459Z,14.66
2023-02-23T01:20:53.338Z,14.62
2023-02-23T01:23:21.188Z,14.27
2023-02-23T01:25:48.243Z,14.70
2023-02-23T01:28:15.212Z,14.17
2023-02-23T01:30:42.000Z,14.54
2023-02-23T01:33:09.231Z,14.59
2023-02-23T01:35:36.058Z,14.48
2023-02-23T01:38:03.681Z,14.36
2023-02-23T01:40:30.508Z,14.66
2023-02-23T01:43:26.652Z,14.81
2023-02-23T01:45:58.062Z,14.64
2023-02-23T01:48:32.596Z,14.44
2023-02-23T01:51:05.311Z,14.57
2023-02-23T01:53:35.476Z,14.66
2023-02-23T01:56:06.058Z,14.93
2023-02-23T01:58:34.165Z,14.64
2023-02-23T02:01:03.968Z,14.86
2023-02-23T02:03:36.808Z,14.81
2023-02-23T02:06:04.461Z,14.74
2023-02-23T02:08:31.715Z,14.59
2023-02-23T02:10:58.727Z,14.15
2023-02-23T02:13:28.107Z,14.33
2023-02-23T02:15:54.974Z,14.73
2023-02-23T02:18:32.559Z,14.87
2023-02-23T02:21:18.550Z,14.79
2023-02-23T02:23:51.007Z,14.63
2023-02-23T02:26:24.207Z,14.73
2023-02-23T02:28:56.913Z,14.64
2023-02-23T02:31:41.712Z,14.87
2023-02-23T02:34:23.507Z,14.82
2023-02-23T02:36:50.110Z,14.69
2023-02-23T02:39:38.064Z,14.58
2023-02-23T02:42:11.040Z,14.45
2023-02-23T02:44:42.189Z,14.77
2023-02-23T02:47:12.522Z,14.89
2023-02-23T02:49:45.356Z,14.95
2023-02-23T02:52:17.972Z,14.82
2023-02-23T02:54:49.225Z,14.72
2023-02-23T02:57:17.434Z,14.91
2023-02-23T03:00:07.379Z,14.82
2023-02-23T03:03:01.743Z,14.81
2023-02-23T03:05:49.014Z,14.85
2023-02-23T03:08:45.748Z,14.94
2023-02-23T03:11:32.297Z,14.81
2023-02-23T03:14:43.449Z,14.86
2023-02-23T03:17:43.853Z,14.82
2023-02-23T03:20:34.839Z,14.94
2023-02-23T03:23:38.528Z,14.75
2023-02-23T03:26:40.275Z,14.81
2023-02-23T03:29:25.463Z,14.56
2023-02-23T03:32:22.135Z,14.59
2023-02-23T03:35:14.980Z,14.64
2023-02-23T03:38:02.875Z,14.56
2023-02-23T03:40:58.833Z,14.98
2023-02-23T03:43:46.298Z,14.98
2023-02-23T03:46:32.363Z,14.80
2023-02-23T03:49:20.385Z,14.88
2023-02-23T03:52:09.141Z,15.09
2023-02-23T03:54:57.138Z,14.83
2023-02-23T03:57:45.327Z,14.92
2023-02-23T04:00:34.654Z,14.81
2023-02-23T04:03:22.367Z,14.98
2023-02-23T04:06:09.574Z,14.91
2023-02-23T04:08:56.880Z,15.02
2023-02-23T04:11:41.774Z,15.02
2023-02-23T04:14:15.351Z,14.92
2023-02-23T04:16:42.661Z,15.01
2023-02-23T04:19:09.433Z,14.98
2023-02-23T04:21:36.040Z,15.09
2023-02-23T04:24:02.580Z,15.10
2023-02-23T04:26:29.052Z,15.10
2023-02-23T04:28:55.592Z,15.21
2023-02-23T04:31:25.230Z,15.13
2023-02-23T04:33:52.238Z,15.23
2023-02-23T04:36:19.082Z,15.01
2023-02-23T04:38:45.896Z,15.05
2023-02-23T04:41:13.099Z,15.28
2023-02-23T04:43:39.781Z,15.19
2023-02-23T04:46:06.241Z,15.33
2023-02-23T04:48:32.983Z,15.21
2023-02-23T04:50:59.875Z,15.27
2023-02-23T04:53:27.242Z,15.24
2023-02-23T04:55:53.648Z,15.49
2023-02-23T04:58:20.603Z,15.24
2023-02-23T05:00:47.339Z,15.41
2023-02-23T05:03:14.608Z,15.34
2023-02-23T05:05:41.211Z,15.22
2023-02-23T05:08:07.737Z,14.90
2023-02-23T05:10:34.801Z,15.08
2023-02-23T05:13:01.423Z,15.08
2023-02-23T05:15:28.251Z,14.86
2023-02-23T05:18:06.681Z,14.82
2023-02-23T05:20:39.163Z,14.92
2023-02-23T05:23:06.017Z,15.14
2023-02-23T05:25:34.032Z,15.24
2023-02-23T05:28:00.905Z,15.11
2023-02-23T05:30:27.924Z,15.16
2023-02-23T05:32:54.989Z,15.14
2023-02-23T05:35:21.853Z,15.13
2023-02-23T05:37:48.698Z,15.15
2023-02-23T05:40:15.394Z,15.30
2023-02-23T05:42:42.399Z,15.24
2023-02-23T05:45:12.396Z,15.01
2023-02-23T05:47:39.166Z,15.11
2023-02-23T05:50:07.411Z,15.18
2023-02-23T05:52:37.155Z,15.15
2023-02-23T05:55:05.152Z,15.19
2023-02-23T05:57:31.909Z,15.30
2023-02-23T05:59:58.968Z,15.40
2023-02-23T06:02:27.451Z,15.32
2023-02-23T06:04:54.076Z,15.35
2023-02-23T06:07:20.714Z,15.24
2023-02-23T06:09:47.377Z,15.14
2023-02-23T06:12:14.396Z,15.21
2023-02-23T06:14:40.949Z,15.12
2023-02-23T06:17:07.967Z,15.25
2023-02-23T06:19:35.089Z,15.27
2023-02-23T06:22:02.172Z,15.35
2023-02-23T06:24:28.678Z,15.19
2023-02-23T06:26:55.791Z,15.14
2023-02-23T06:29:22.902Z,15.19
2023-02-23T06:31:49.515Z,14.99
2023-02-23T06:34:16.702Z,15.11
2023-02-23T06:36:43.528Z,14.92
2023-02-23T06:39:11.089Z,14.69
2023-02-23T06:41:38.512Z,14.95
2023-02-23T06:44:05.158Z,15.09
2023-02-23T06:46:33.641Z,15.14
2023-02-23T06:49:00.681Z,15.21
2023-02-23T06:51:27.130Z,15.07
2023-02-23T06:53:53.681Z,14.93
2023-02-23T06:56:20.548Z,14.86
2023-02-23T06:58:48.013Z,14.79
2023-02-23T07:01:15.719Z,15.02
2023-02-23T07:03:42.549Z,15.24
2023-02-23T07:06:09.725Z,15.26
2023-02-23T07:08:36.849Z,15.23
2023-02-23T07:11:11.762Z,14.95
2023-02-23T07:13:38.377Z,15.24
2023-02-23T07:16:05.541Z,14.86
2023-02-23T07:18:32.976Z,14.79
2023-02-23T07:20:59.513Z,15.22
2023-02-23T07:23:26.090Z,15.35
2023-02-23T07:25:53.412Z,14.91
2023-02-23T07:28:21.583Z,14.99
2023-02-23T07:30:49.927Z,15.28
2023-02-23T07:33:17.009Z,15.45
2023-02-23T07:35:44.950Z,15.57
2023-02-23T07:38:13.630Z,15.03
2023-02-23T07:40:40.296Z,15.18
2023-02-23T07:43:08.858Z,15.10
2023-02-23T07:45:36.116Z,14.80
2023-02-23T07:48:02.989Z,14.96
2023-02-23T07:50:29.694Z,15.06
2023-02-23T07:52:56.706Z,15.19
2023-02-23T07:55:23.953Z,15.28
2023-02-23T07:57:50.489Z,14.72
2023-02-23T08:00:17.348Z,14.99
2023-02-23T08:02:44.305Z,14.48
2023-02-23T08:05:11.169Z,15.24
2023-02-23T08:07:38.196Z,15.23
2023-02-23T08:10:06.888Z,14.50
2023-02-23T08:12:34.243Z,15.18
2023-02-23T08:15:00.613Z,15.06
2023-02-23T08:17:27.535Z,14.78
2023-02-23T08:19:54.206Z,15.24
2023-02-23T08:22:21.889Z,14.45
2023-02-23T08:24:48.765Z,14.69
2023-02-23T08:27:15.522Z,13.99
2023-02-23T08:29:42.328Z,14.53
2023-02-23T08:32:09.784Z,14.90
2023-02-23T08:34:40.737Z,14.59
2023-02-23T08:37:07.723Z,14.58
2023-02-23T08:39:34.740Z,14.24
2023-02-23T08:42:01.200Z,14.82
2023-02-23T08:44:27.889Z,14.46
2023-02-23T08:46:55.744Z,14.39
2023-02-23T08:49:23.106Z,14.70
2023-02-23T08:51:50.232Z,14.80
2023-02-23T08:54:17.441Z,15.46
2023-02-23T08:56:44.942Z,14.66
2023-02-23T08:59:12.516Z,14.28
2023-02-23T09:01:40.235Z,14.42
2023-02-23T09:04:07.043Z,14.67
2023-02-23T09:06:35.315Z,14.40
2023-02-23T09:09:03.209Z,14.20
2023-02-23T09:11:30.003Z,13.43
2023-02-23T09:13:56.638Z,14.11
2023-02-23T09:16:23.266Z,13.84
2023-02-23T09:18:49.682Z,14.57
2023-02-23T09:21:22.223Z,15.18
2023-02-23T09:23:51.490Z,14.58
2023-02-23T09:26:19.270Z,13.84
2023-02-23T09:28:46.215Z,13.98
2023-02-23T09:31:15.656Z,13.90
2023-02-23T09:33:43.222Z,14.44
2023-02-23T09:36:16.195Z,14.27
2023-02-23T09:38:47.127Z,13.97
2023-02-23T09:41:25.900Z,13.86
2023-02-23T09:43:54.399Z,13.01
2023-02-23T09:46:34.102Z,12.71
2023-02-23T09:49:03.213Z,11.75
2023-02-23T09:51:30.605Z,11.98
2023-02-23T09:53:59.729Z,11.90
2023-02-23T09:56:29.525Z,12.66
2023-02-23T09:58:56.953Z,13.23
2023-02-23T10:01:42.396Z,13.09
2023-02-23T10:04:14.838Z,12.69
2023-02-23T10:06:44.264Z,13.93
2023-02-23T10:09:34.620Z,13.59
2023-02-23T10:12:13.953Z,13.33
2023-02-23T10:15:12.941Z,14.14
2023-02-23T10:17:46.757Z,14.01
2023-02-23T10:20:32.253Z,13.62
2023-02-23T10:23:03.899Z,13.27
2023-02-23T10:25:32.236Z,13.66
2023-02-23T10:28:00.043Z,13.97
2023-02-23T10:30:29.073Z,13.47
2023-02-23T10:32:59.799Z,13.78
2023-02-23T10:35:29.199Z,13.98
2023-02-23T10:37:56.574Z,13.10
2023-02-23T10:40:25.606Z,14.35
2023-02-23T10:42:54.187Z,12.94
2023-02-23T10:45:25.708Z,14.33
2023-02-23T10:47:55.341Z,13.03
2023-02-23T10:50:22.598Z,13.45
2023-02-23T10:52:52.779Z,13.10
2023-02-23T10:55:26.419Z,13.05
2023-02-23T10:58:02.529Z,13.34
2023-02-23T11:00:32.985Z,13.81
2023-02-23T11:03:01.188Z,12.85
2023-02-23T11:05:30.402Z,13.20
2023-02-23T11:08:30.790Z,13.85
2023-02-23T11:11:20.946Z,13.77
2023-02-23T11:13:49.206Z,13.61
2023-02-23T11:16:21.186Z,13.35
2023-02-23T11:18:56.697Z,13.73
2023-02-23T11:21:29.626Z,14.07
2023-02-23T11:23:57.667Z,13.69
2023-02-23T11:26:24.249Z,14.30
2023-02-23T11:28:53.221Z,14.08
2023-02-23T11:31:21.850Z,13.79
2023-02-23T11:33:50.087Z,12.74
2023-02-23T11:36:21.453Z,13.16
2023-02-23T11:38:48.418Z,12.92
2023-02-23T11:41:21.101Z,12.77
2023-02-23T11:43:54.871Z,14.30
2023-02-23T11:46:23.039Z,14.24
2023-02-23T11:49:04.325Z,14.19
2023-02-23T11:51:36.231Z,14.35
2023-02-23T11:54:05.496Z,14.51
2023-02-23T11:56:33.896Z,14.61
2023-02-23T11:59:04.916Z,14.75
2023-02-23T12:01:45.875Z,14.44
2023-02-23T12:04:32.718Z,14.58
2023-02-23T12:07:18.619Z,14.04
2023-02-23T12:09:46.411Z,14.99
2023-02-23T12:12:15.637Z,14.43
2023-02-23T12:14:50.056Z,14.46
2023-02-23T12:17:20.166Z,13.91
2023-02-23T12:19:55.471Z,13.33
2023-02-23T12:22:25.707Z,12.87
2023-02-23T12:25:05.017Z,13.50
2023-02-23T12:27:31.626Z,13.55
2023-02-23T12:30:17.417Z,13.02
2023-02-23T12:32:48.051Z,13.92
2023-02-23T12:35:21.813Z,14.27
2023-02-23T12:37:54.081Z,13.19
2023-02-23T12:40:35.549Z,13.27
2023-02-23T12:43:05.859Z,13.91
2023-02-23T12:45:53.106Z,14.61
2023-02-23T12:48:33.895Z,13.66
2023-02-23T12:51:02.066Z,13.35
2023-02-23T12:53:44.556Z,12.90
2023-02-23T12:56:11.918Z,13.15
2023-02-23T12:58:38.759Z,13.05
2023-02-23T13:01:05.722Z,14.18
2023-02-23T13:03:40.218Z,13.58
2023-02-23T13:06:25.487Z,14.28
2023-02-23T13:08:52.095Z,13.24
2023-02-23T13:11:24.743Z,12.87
2023-02-23T13:13:58.110Z,13.87
2023-02-23T13:16:34.499Z,12.10
2023-02-23T13:19:09.842Z,13.26
2023-02-23T13:21:54.712Z,13.91
2023-02-23T13:24:26.821Z,14.13
2023-02-23T13:26:53.177Z,14.22
2023-02-23T13:29:29.405Z,14.41
2023-02-23T13:31:57.961Z,14.42
2023-02-23T13:34:27.011Z,13.67
2023-02-23T13:36:54.969Z,14.11
2023-02-23T13:39:36.857Z,13.53
2023-02-23T13:42:03.346Z,14.36
2023-02-23T13:44:37.383Z,14.27
2023-02-23T13:47:14.363Z,13.14
2023-02-23T13:50:03.899Z,13.55
2023-02-23T13:52:40.539Z,14.08
2023-02-23T13:55:34.625Z,13.53
2023-02-23T13:58:24.226Z,14.21
2023-02-23T14:01:04.185Z,14.66
2023-02-23T14:03:36.102Z,14.76
2023-02-23T14:06:04.208Z,14.64
2023-02-23T14:08:42.942Z,13.91
2023-02-23T14:11:09.783Z,14.15
2023-02-23T14:13:40.778Z,13.04
2023-02-23T14:16:12.154Z,14.28
2023-02-23T14:18:54.621Z,14.30
2023-02-23T14:21:35.982Z,14.07
2023-02-23T14:24:03.165Z,14.16
2023-02-23T14:26:29.814Z,14.81
2023-02-23T14:29:15.277Z,14.39
2023-02-23T14:31:54.177Z,14.40
2023-02-23T14:34:23.222Z,13.45
2023-02-23T14:36:53.526Z,14.24
2023-02-23T14:39:24.715Z,13.75
2023-02-23T14:41:55.262Z,13.94
2023-02-23T14:44:31.127Z,14.07
2023-02-23T14:47:01.439Z,14.39
2023-02-23T14:49:29.034Z,14.57
2023-02-23T14:51:56.876Z,13.85
2023-02-23T14:54:26.580Z,13.38
2023-02-23T14:56:56.629Z,14.75
2023-02-23T14:59:24.383Z,14.05
2023-02-23T15:01:52.401Z,15.06
2023-02-23T15:04:22.762Z,14.68
2023-02-23T15:06:50.112Z,15.35
2023-02-23T15:09:18.760Z,14.60
2023-02-23T15:11:49.990Z,14.90
2023-02-23T15:14:27.411Z,14.22
2023-02-23T15:16:56.414Z,14.01
2023-02-23T15:19:26.021Z,14.46
2023-02-23T15:21:55.139Z,14.48
2023-02-23T15:24:25.067Z,13.88
2023-02-23T15:26:52.312Z,13.53
2023-02-23T15:29:23.723Z,13.29
2023-02-23T15:31:55.238Z,12.45
2023-02-23T15:34:24.266Z,13.58
2023-02-23T15:36:53.173Z,13.76
2023-02-23T15:39:23.061Z,13.99
2023-02-23T15:41:49.891Z,14.45
2023-02-23T15:44:27.314Z,13.94
2023-02-23T15:46:56.801Z,12.97
2023-02-23T15:49:26.314Z,13.87
2023-02-23T15:51:59.361Z,12.91
2023-02-23T15:54:31.493Z,12.96
2023-02-23T15:56:59.396Z,12.44
2023-02-23T15:59:30.979Z,13.70
2023-02-23T16:01:59.117Z,12.77
2023-02-23T16:04:29.003Z,12.48
2023-02-23T16:07:13.423Z,13.08
2023-02-23T16:09:41.275Z,12.72
2023-02-23T16:12:07.831Z,12.93
2023-02-23T16:14:43.621Z,13.28
2023-02-23T16:17:20.378Z,12.75
2023-02-23T16:19:47.291Z,12.45
2023-02-23T16:22:25.171Z,12.49
2023-02-23T16:25:02.935Z,12.86
2023-02-23T16:27:30.553Z,12.69
2023-02-23T16:30:00.322Z,12.38
2023-02-23T16:32:47.785Z,11.37
2023-02-23T16:35:16.336Z,11.79
2023-02-23T16:38:01.467Z,10.53
2023-02-23T16:40:45.544Z,11.22
2023-02-23T16:43:12.216Z,11.19
2023-02-23T16:45:41.666Z,10.58
2023-02-23T16:48:16.907Z,10.89
2023-02-23T16:50:45.539Z,10.65
2023-02-23T16:53:12.759Z,10.76
2023-02-23T16:55:41.532Z,10.97
2023-02-23T16:58:31.241Z,10.79
2023-02-23T17:00:57.879Z,10.40
2023-02-23T17:03:26.435Z,11.43
2023-02-23T17:06:04.697Z,10.42
2023-02-23T17:08:31.913Z,10.87
2023-02-23T17:11:13.366Z,9.55
2023-02-23T17:13:40.520Z,10.13
2023-02-23T17:16:19.434Z,9.80
2023-02-23T17:18:48.947Z,10.69
2023-02-23T17:21:23.983Z,9.25
2023-02-23T17:23:51.473Z,9.93
2023-02-23T17:26:25.262Z,9.89
2023-02-23T17:28:58.147Z,9.29
2023-02-23T17:31:27.124Z,9.98
2023-02-23T17:33:55.483Z,9.33
2023-02-23T17:36:24.298Z,9.38
2023-02-23T17:38:58.705Z,10.23
2023-02-23T17:41:27.219Z,9.93
2023-02-23T17:43:54.286Z,10.09
2023-02-23T17:46:34.755Z,9.61
2023-02-23T17:49:02.250Z,9.73
2023-02-23T17:51:50.235Z,9.70
2023-02-23T17:54:17.166Z,10.07
2023-02-23T17:56:44.072Z,10.17
2023-02-23T17:59:11.290Z,9.58
2023-02-23T18:01:40.277Z,9.24
2023-02-23T18:04:14.432Z,9.35
2023-02-23T18:06:41.975Z,9.46
2023-02-23T18:09:20.978Z,8.72
2023-02-23T18:11:47.877Z,9.37
2023-02-23T18:14:14.896Z,9.52
2023-02-23T18:16:48.147Z,9.48
2023-02-23T18:19:16.417Z,10.10
2023-02-23T18:21:44.016Z,9.71
2023-02-23T18:24:11.892Z,8.95
2023-02-23T18:26:51.440Z,9.50
2023-02-23T18:29:21.031Z,9.10
2023-02-23T18:31:50.281Z,9.77
2023-02-23T18:34:29.517Z,9.27
2023-02-23T18:36:57.538Z,8.67
2023-02-23T18:39:24.473Z,8.74
2023-02-23T18:41:51.651Z,9.32
2023-02-23T18:44:22.009Z,8.84
2023-02-23T18:46:49.231Z,8.78
2023-02-23T18:49:17.429Z,8.57
2023-02-23T18:51:51.339Z,8.70
2023-02-23T18:54:18.956Z,9.13
2023-02-23T18:56:48.500Z,9.28
2023-02-23T18:59:15.639Z,8.99
2023-02-23T19:01:49.823Z,8.29
2023-02-23T19:04:16.944Z,8.46
2023-02-23T19:06:47.339Z,8.40
2023-02-23T19:09:19.884Z,8.36
2023-02-23T19:11:47.405Z,8.49
2023-02-23T19:14:18.294Z,8.74
2023-02-23T19:16:46.869Z,8.41
2023-02-23T19:19:14.621Z,9.00
2023-02-23T19:21:43.359Z,8.82
2023-02-23T19:24:11.113Z,8.74
2023-02-23T19:26:39.941Z,8.51
2023-02-23T19:29:08.817Z,9.06
2023-02-23T19:31:37.408Z,9.37
2023-02-23T19:34:06.128Z,9.20
2023-02-23T19:36:34.521Z,8.77
2023-02-23T19:39:10.538Z,8.80
2023-02-23T19:41:39.207Z,8.60
2023-02-23T19:44:14.663Z,8.05
2023-02-23T19:46:43.260Z,8.40
2023-02-23T19:49:21.598Z,8.64
2023-02-23T19:51:51.043Z,8.32
2023-02-23T19:54:18.264Z,8.54
2023-02-23T19:56:45.102Z,8.13
2023-02-23T19:59:13.482Z,9.02
2023-02-23T20:01:40.560Z,8.48
2023-02-23T20:04:13.595Z,8.95
2023-02-23T20:06:48.451Z,8.37
2023-02-23T20:09:15.377Z,7.89
2023-02-23T20:11:42.857Z,8.10
2023-02-23T20:14:10.519Z,7.98
2023-02-23T20:16:40.515Z,7.62
2023-02-23T20:19:07.918Z,7.91
2023-02-23T20:21:37.095Z,8.15
2023-02-23T20:24:05.993Z,8.61
2023-02-23T20:26:35.569Z,7.90
2023-02-23T20:29:18.044Z,7.33
2023-02-23T20:31:50.761Z,8.21
2023-02-23T20:34:21.495Z,7.57
2023-02-23T20:36:53.873Z,7.76
2023-02-23T20:39:21.035Z,7.55
2023-02-23T20:41:53.642Z,8.68
2023-02-23T20:44:22.054Z,7.98
2023-02-23T20:46:49.032Z,7.94
2023-02-23T20:49:18.526Z,7.60
2023-02-23T20:51:46.249Z,8.08
2023-02-23T20:54:21.381Z,8.62
2023-02-23T20:56:59.192Z,8.61
2023-02-23T20:59:30.605Z,8.12
2023-02-23T21:01:57.468Z,7.98
2023-02-23T21:04:24.247Z,7.72
2023-02-23T21:06:51.588Z,8.20
2023-02-23T21:09:18.565Z,7.55
2023-02-23T21:11:49.604Z,8.44
2023-02-23T21:14:16.884Z,8.60
2023-02-23T21:16:46.772Z,8.74
2023-02-23T21:19:14.595Z,8.83
2023-02-23T21:21:47.145Z,8.54
2023-02-23T21:24:15.866Z,8.02
2023-02-23T21:26:43.061Z,7.90
2023-02-23T21:29:16.788Z,7.25
2023-02-23T21:31:45.248Z,8.11
2023-02-23T21:34:12.561Z,8.09
2023-02-23T21:36:39.564Z,7.42
2023-02-23T21:39:07.188Z,7.08
2023-02-23T21:41:41.638Z,7.83
2023-02-23T21:44:09.834Z,7.82
2023-02-23T21:46:42.018Z,6.86
2023-02-23T21:49:09.980Z,7.53
2023-02-23T21:51:39.554Z,8.07
2023-02-23T21:54:07.495Z,7.55
2023-02-23T21:56:35.888Z,6.91
2023-02-23T21:59:06.234Z,7.40
2023-02-23T22:01:38.240Z,8.14
2023-02-23T22:04:06.749Z,7.96
2023-02-23T22:06:42.161Z,8.97
2023-02-23T22:09:13.257Z,6.82
2023-02-23T22:11:44.082Z,7.81
2023-02-23T22:14:12.977Z,8.40
2023-02-23T22:16:44.832Z,8.17
2023-02-23T22:19:12.578Z,7.10
2023-02-23T22:21:42.024Z,7.27
2023-02-23T22:24:09.947Z,7.72
2023-02-23T22:26:39.816Z,7.16
2023-02-23T22:29:13.324Z,7.25
2023-02-23T22:31:40.693Z,7.22
2023-02-23T22:34:08.662Z,7.23
2023-02-23T22:36:35.400Z,7.04
2023-02-23T22:39:02.888Z,8.31
2023-02-23T22:41:43.362Z,7.43
2023-02-23T22:44:12.394Z,8.11
2023-02-23T22:46:53.285Z,7.54
2023-02-23T22:49:20.605Z,8.22
2023-02-23T22:51:55.174Z,8.86
2023-02-23T22:54:24.276Z,9.43
2023-02-23T22:56:51.272Z,9.26
2023-02-23T22:59:20.769Z,8.94
2023-02-23T23:01:50.511Z,8.32
2023-02-23T23:04:17.574Z,9.16
2023-02-23T23:06:44.268Z,9.66
2023-02-23T23:09:17.184Z,9.26
2023-02-23T23:11:45.102Z,8.50
2023-02-23T23:14:13.418Z,8.95
2023-02-23T23:16:48.944Z,8.97
2023-02-23T23:19:24.730Z,8.28
2023-02-23T23:22:00.621Z,7.91
2023-02-23T23:24:27.630Z,9.58
2023-02-23T23:27:00.955Z,9.79
2023-02-23T23:29:30.468Z,9.69
2023-02-23T23:31:57.622Z,9.89
2023-02-23T23:34:26.897Z,8.63
2023-02-23T23:36:53.676Z,9.08
2023-02-23T23:39:22.352Z,9.48
2023-02-23T23:41:56.537Z,9.32
2023-02-23T23:44:29.911Z,9.36
2023-02-23T23:46:57.240Z,9.24
2023-02-23T23:49:27.845Z,9.37
2023-02-23T23:51:59.636Z,8.38
2023-02-23T23:54:39.356Z,8.87
2023-02-23T23:57:06.867Z,8.17
2023-02-23T23:59:34.365Z,8.57
